Time;durP1;ratioP1;P1;durP2;ratioP2;P2;SDS_P1;SDS_P2;PMS_P1;PMS_P2;Temp;Humidity;BMP_temperature;BMP_pressure;BME280_temperature;BME280_humidity;BME280_pressure;Samples;Min_cycle;Max_cycle;Signal;HPM_P1;HPM_P2
2024/01/26 00:00:46;;;;;;;28.00;11.82;;;;;;;-5.70;97.45;100313.38;10256382;28;20090;-71
2024/01/26 00:05:47;;;;;;;20.30;10.52;;;;;;;-5.68;97.80;100315.88;10257337;28;20110;-70
2024/01/26 00:10:47;;;;;;;19.55;10.80;;;;;;;-5.67;97.61;100312.41;10256101;28;20067;-71
2024/01/26 00:15:49;;;;;;;16.00;8.82;;;;;;;-5.80;97.87;100296.59;10256516;28;20043;-71
2024/01/26 00:20:50;;;;;;;15.98;8.82;;;;;;;-5.74;97.62;100291.16;10255717;29;20079;-70
2024/01/26 00:25:51;;;;;;;15.23;7.90;;;;;;;-5.78;97.78;100268.88;10256408;29;20070;-71
2024/01/26 00:30:52;;;;;;;17.65;8.93;;;;;;;-5.70;97.67;100258.22;10255338;29;20043;-71
2024/01/26 00:35:52;;;;;;;12.63;7.07;;;;;;;-5.70;97.88;100246.09;10255055;29;20035;-71
2024/01/26 00:40:53;;;;;;;15.40;8.70;;;;;;;-5.67;97.69;100245.13;10255436;29;20040;-71
2024/01/26 00:45:54;;;;;;;13.80;7.40;;;;;;;-5.62;97.44;100263.91;10253993;29;20059;-71
2024/01/26 00:50:55;;;;;;;11.75;7.25;;;;;;;-5.59;97.75;100254.25;10254509;29;20052;-70
2024/01/26 00:55:56;;;;;;;11.98;7.18;;;;;;;-5.45;98.09;100274.31;10254322;28;20043;-70
2024/01/26 01:00:56;;;;;;;11.15;6.57;;;;;;;-5.67;97.74;100240.78;10254670;29;20530;-71
2024/01/26 01:05:57;;;;;;;11.93;7.07;;;;;;;-5.90;97.61;100189.22;10254706;29;20130;-71
2024/01/26 01:10:58;;;;;;;13.32;6.95;;;;;;;-5.38;97.19;100272.31;10253227;29;20143;-71
2024/01/26 01:16:00;;;;;;;12.95;7.70;;;;;;;-5.42;97.37;100269.00;10253656;28;20071;-71
2024/01/26 01:21:01;;;;;;;13.65;7.72;;;;;;;-5.41;97.46;100275.88;10253104;28;20101;-71
2024/01/26 01:26:02;;;;;;;16.08;8.27;;;;;;;-5.44;97.53;100291.56;10253093;29;20150;-71
2024/01/26 01:31:04;;;;;;;16.02;9.05;;;;;;;-5.55;97.15;100273.91;10253140;29;20067;-70
2024/01/26 01:36:05;;;;;;;16.75;9.25;;;;;;;-5.56;97.14;100282.56;10252897;28;20039;-71
2024/01/26 01:41:06;;;;;;;19.25;10.77;;;;;;;-5.61;97.27;100266.41;10245876;29;20524;-72
2024/01/26 01:46:08;;;;;;;20.73;10.70;;;;;;;-5.54;97.33;100275.56;10253180;28;20082;-72
2024/01/26 01:51:09;;;;;;;18.48;10.65;;;;;;;-5.53;97.33;100284.19;10253266;28;20483;-72
2024/01/26 01:56:11;;;;;;;17.65;9.23;;;;;;;-5.77;96.99;100268.00;10252758;28;20039;-72
2024/01/26 02:01:12;;;;;;;18.63;9.73;;;;;;;-5.51;97.36;100301.31;10252249;28;20043;-72
2024/01/26 02:06:12;;;;;;;22.23;10.75;;;;;;;-5.44;97.29;100293.28;10251780;28;20042;-71
2024/01/26 02:11:13;;;;;;;24.75;12.57;;;;;;;-5.45;97.03;100294.19;10251885;28;20046;-72
2024/01/26 02:16:14;;;;;;;29.48;14.57;;;;;;;-5.57;96.85;100286.06;10249666;29;20043;-71
2024/01/26 02:21:14;;;;;;;29.75;14.63;;;;;;;-5.62;97.31;100290.63;10251473;28;20051;-72
2024/01/26 02:26:15;;;;;;;45.75;15.40;;;;;;;-5.64;97.25;100283.81;10249212;28;20050;-73
2024/01/26 02:31:15;;;;;;;31.00;14.77;;;;;;;-5.75;97.07;100256.66;10250296;28;20043;-72
2024/01/26 02:36:16;;;;;;;34.08;13.98;;;;;;;-5.82;97.29;100260.41;10251521;29;20051;-71
2024/01/26 02:41:17;;;;;;;33.03;15.05;;;;;;;-5.71;97.66;100291.00;10249648;29;20043;-72
2024/01/26 02:46:18;;;;;;;34.22;15.00;;;;;;;-5.66;97.83;100312.34;10250159;28;20447;-72
2024/01/26 02:51:19;;;;;;;31.00;15.15;;;;;;;-5.78;97.43;100294.75;10242390;28;20043;-69
2024/01/26 02:56:19;;;;;;;29.52;13.35;;;;;;;-6.21;97.41;100206.94;10243504;28;20047;-71
2024/01/26 03:01:20;;;;;;;28.35;13.43;;;;;;;-5.72;97.35;100289.31;10250075;28;20142;-71
2024/01/26 03:06:21;;;;;;;34.95;15.20;;;;;;;-5.97;97.90;100254.19;10248426;28;20051;-72
2024/01/26 03:11:22;;;;;;;58.58;26.75;;;;;;;-5.69;98.15;100302.13;10250226;28;20039;-72
2024/01/26 03:16:22;;;;;;;45.90;21.20;;;;;;;-5.63;97.95;100304.44;10251179;28;20046;-72
2024/01/26 03:21:23;;;;;;;40.55;19.80;;;;;;;-5.65;97.64;100303.69;10250224;28;20069;-71
2024/01/26 03:26:24;;;;;;;41.53;18.15;;;;;;;-5.65;97.65;100319.22;10250723;28;20491;-72
2024/01/26 03:31:24;;;;;;;37.35;17.17;;;;;;;-5.60;97.36;100314.66;10248636;29;20094;-73
2024/01/26 03:36:25;;;;;;;41.85;20.20;;;;;;;-5.61;97.67;100312.97;10250198;28;20121;-73
2024/01/26 03:41:26;;;;;;;33.47;14.65;;;;;;;-5.56;97.50;100318.81;10249600;28;20039;-70
2024/01/26 03:46:27;;;;;;;28.63;14.10;;;;;;;-5.68;97.27;100319.34;10256324;28;20051;-72
2024/01/26 03:51:27;;;;;;;32.03;13.38;;;;;;;-5.63;97.83;100309.63;10256493;29;20043;-73
2024/01/26 03:56:28;;;;;;;28.83;13.48;;;;;;;-5.92;98.05;100264.31;10256526;28;20035;-71
2024/01/26 04:01:29;;;;;;;41.30;15.85;;;;;;;-5.93;97.67;100292.84;10257203;28;20051;-73
2024/01/26 04:06:30;;;;;;;34.92;15.73;;;;;;;-5.76;98.07;100324.00;10256862;28;20616;-75
2024/01/26 04:11:30;;;;;;;35.58;15.27;;;;;;;-5.65;98.27;100328.69;10254419;28;20500;-74
2024/01/26 04:16:31;;;;;;;40.45;17.33;;;;;;;-5.60;98.20;100347.47;10255942;28;20154;-72
2024/01/26 04:21:32;;;;;;;34.42;16.13;;;;;;;-5.63;98.05;100342.41;10255934;28;20495;-72
2024/01/26 04:26:32;;;;;;;33.70;15.38;;;;;;;-5.61;98.28;100359.56;10256669;28;20043;-72
2024/01/26 04:31:33;;;;;;;36.47;14.70;;;;;;;-5.50;98.42;100356.53;10254652;28;20132;-76
2024/01/26 04:36:34;;;;;;;36.35;15.43;;;;;;;-5.74;98.17;100314.44;10253612;28;20066;-74
2024/01/26 04:41:34;;;;;;;30.17;15.52;;;;;;;-5.37;97.97;100364.59;10253630;28;20063;-74
2024/01/26 04:46:36;;;;;;;31.58;15.35;;;;;;;-5.18;98.66;100377.59;10253705;28;20063;-74
2024/01/26 04:51:40;;;;;;;34.47;15.60;;;;;;;-5.34;98.39;100342.00;10255273;28;20040;-77
2024/01/26 04:56:42;;;;;;;36.95;16.30;;;;;;;-5.11;98.08;100353.94;10255366;28;20047;-76
2024/01/26 05:01:43;;;;;;;33.13;15.70;;;;;;;-4.87;97.87;100377.09;10252980;28;20138;-76
2024/01/26 05:06:44;;;;;;;37.63;16.48;;;;;;;-4.71;97.60;100375.47;10254833;28;20043;-76
2024/01/26 05:11:45;;;;;;;35.33;15.77;;;;;;;-4.57;97.88;100371.41;10253870;28;20101;-76
2024/01/26 05:16:46;;;;;;;33.22;16.23;;;;;;;-4.77;97.41;100305.78;10254435;28;20043;-76
2024/01/26 05:21:46;;;;;;;32.05;14.95;;;;;;;-4.58;97.32;100305.72;10253979;28;20591;-76
2024/01/26 05:26:47;;;;;;;39.75;16.52;;;;;;;-4.51;96.93;100303.72;10253663;28;20050;-77
2024/01/26 05:31:48;;;;;;;35.92;14.93;;;;;;;-4.25;97.13;100356.91;10253661;28;20587;-77
2024/01/26 05:36:48;;;;;;;35.22;14.25;;;;;;;-4.18;97.67;100346.16;10252980;28;20046;-76
2024/01/26 05:41:49;;;;;;;25.42;11.80;;;;;;;-4.00;97.91;100360.00;10252437;28;20051;-76
2024/01/26 05:46:50;;;;;;;24.98;12.02;;;;;;;-4.01;97.51;100370.44;10252698;28;20586;-77
2024/01/26 05:51:51;;;;;;;33.13;14.52;;;;;;;-3.85;98.15;100363.59;10252399;28;20106;-77
2024/01/26 05:56:52;;;;;;;29.05;12.65;;;;;;;-3.65;98.24;100366.94;10252354;28;20509;-76
2024/01/26 06:01:52;;;;;;;30.45;12.63;;;;;;;-3.80;97.92;100330.47;10252497;28;20055;-76
2024/01/26 06:06:53;;;;;;;20.92;10.52;;;;;;;-3.43;97.80;100375.34;10251780;28;20558;-77
2024/01/26 06:11:54;;;;;;;19.63;9.52;;;;;;;-3.62;97.29;100326.13;10251778;28;20043;-77
2024/01/26 06:16:54;;;;;;;20.10;9.70;;;;;;;-3.06;97.13;100384.66;10252768;29;20043;-77
2024/01/26 06:21:55;;;;;;;21.10;10.38;;;;;;;-2.89;96.71;100386.38;10251574;29;20129;-77
2024/01/26 06:26:56;;;;;;;21.33;10.77;;;;;;;-2.77;97.04;100390.94;10252872;28;20117;-77
2024/01/26 06:32:00;;;;;;;18.88;9.65;;;;;;;-2.79;95.73;100356.38;10251388;28;20112;-77
2024/01/26 06:37:01;;;;;;;21.40;9.77;;;;;;;-2.49;95.07;100394.63;10252364;28;20039;-77
2024/01/26 06:42:02;;;;;;;18.27;9.18;;;;;;;-2.49;95.57;100393.81;10251574;29;20065;-77
2024/01/26 06:47:03;;;;;;;19.77;10.73;;;;;;;-2.60;95.35;100402.22;10251967;29;20380;-77
2024/01/26 06:52:04;;;;;;;19.85;10.50;;;;;;;-2.64;95.22;100406.72;10251307;28;20050;-77
2024/01/26 06:57:05;;;;;;;17.58;9.05;;;;;;;-2.99;95.07;100349.66;10251411;28;20047;-77
2024/01/26 07:02:06;;;;;;;24.08;12.57;;;;;;;-2.47;95.02;100371.16;10251229;28;20487;-77
2024/01/26 07:07:06;;;;;;;18.67;9.23;;;;;;;-2.53;94.66;100372.31;10250579;28;20043;-77
2024/01/26 07:12:07;;;;;;;17.35;10.25;;;;;;;-2.64;94.56;100333.06;10250765;29;20047;-77
2024/01/26 07:17:08;;;;;;;14.30;7.90;;;;;;;-2.49;94.22;100370.41;10250484;28;20053;-78
2024/01/26 07:22:09;;;;;;;15.95;7.88;;;;;;;-2.28;93.42;100386.59;10258576;29;20065;-78
2024/01/26 07:27:10;;;;;;;18.73;9.20;;;;;;;-2.13;93.76;100385.72;10258248;29;20047;-77
2024/01/26 07:32:10;;;;;;;41.03;17.73;;;;;;;-2.42;92.92;100351.78;10257868;29;20058;-77
2024/01/26 07:37:11;;;;;;;24.75;12.63;;;;;;;-2.09;93.52;100388.09;10258079;28;20050;-77
2024/01/26 07:42:12;;;;;;;25.58;12.57;;;;;;;-2.28;93.37;100340.59;10257806;28;20050;-77
2024/01/26 07:47:12;;;;;;;24.83;12.27;;;;;;;-2.13;93.24;100336.28;10258061;28;20523;-77
2024/01/26 07:52:13;;;;;;;23.98;12.35;;;;;;;-1.54;92.73;100391.06;10257767;28;20051;-77
2024/01/26 07:57:14;;;;;;;23.90;12.02;;;;;;;-1.28;92.26;100385.16;10257361;28;20555;-77
2024/01/26 08:02:14;;;;;;;26.38;12.30;;;;;;;-1.41;91.37;100385.03;10256462;28;20130;-75
2024/01/26 08:07:15;;;;;;;25.77;12.95;;;;;;;-1.65;91.94;100370.81;10256317;28;20338;-75
2024/01/26 08:12:16;;;;;;;24.25;13.40;;;;;;;-1.57;92.10;100358.19;10256686;28;20041;-74
2024/01/26 08:17:17;;;;;;;25.17;13.38;;;;;;;-1.21;92.08;100402.09;10256917;28;20047;-75
2024/01/26 08:22:18;;;;;;;28.85;12.80;;;;;;;-1.01;91.34;100360.97;10256325;28;20473;-75
2024/01/26 08:27:19;;;;;;;24.13;12.65;;;;;;;-0.56;91.18;100366.88;10255777;28;20043;-75
2024/01/26 08:32:19;;;;;;;20.75;10.95;;;;;;;-0.57;90.02;100355.59;10255639;28;20403;-74
2024/01/26 08:37:20;;;;;;;26.90;12.93;;;;;;;-0.43;89.92;100346.03;10256639;28;20545;-74
2024/01/26 08:42:22;;;;;;;23.42;12.48;;;;;;;-0.19;89.28;100320.97;10255219;28;20058;-73
2024/01/26 08:47:22;;;;;;;28.25;14.00;;;;;;;-0.33;88.31;100308.84;10255001;28;20105;-74
2024/01/26 08:52:23;;;;;;;27.27;14.13;;;;;;;-0.56;88.03;100310.31;10255445;28;20074;-73
2024/01/26 08:57:24;;;;;;;21.70;12.55;;;;;;;-0.41;88.23;100308.47;10255041;28;20608;-73
2024/01/26 09:02:25;;;;;;;27.08;13.98;;;;;;;-0.45;88.01;100312.19;10255305;28;20567;-73
2024/01/26 09:07:25;;;;;;;32.72;15.65;;;;;;;-0.44;87.36;100284.34;10254704;28;20039;-72
2024/01/26 09:12:26;;;;;;;31.98;16.70;;;;;;;-0.08;87.07;100299.41;10254645;28;20499;-72
2024/01/26 09:17:27;;;;;;;28.63;15.88;;;;;;;-0.58;86.88;100275.63;10254511;28;20036;-72
2024/01/26 09:22:28;;;;;;;40.00;18.67;;;;;;;-0.87;86.76;100225.31;10253313;28;20054;-72
2024/01/26 09:27:30;;;;;;;30.10;17.30;;;;;;;-0.49;87.22;100275.03;10253330;28;20039;-72
2024/01/26 09:32:31;;;;;;;30.77;16.40;;;;;;;-0.76;86.38;100235.91;10253768;28;20385;-72
2024/01/26 09:37:32;;;;;;;32.22;15.90;;;;;;;-0.84;87.18;100230.34;10253057;28;20039;-72
2024/01/26 09:42:32;;;;;;;36.70;15.93;;;;;;;-0.53;86.70;100288.41;10252095;28;20048;-72
2024/01/26 09:47:35;;;;;;;38.65;17.55;;;;;;;-0.37;86.74;100303.91;10252647;28;20043;-72
2024/01/26 09:52:39;;;;;;;36.67;16.83;;;;;;;-0.31;86.71;100298.28;10253555;28;20047;-72
2024/01/26 09:57:45;;;;;;;32.67;16.48;;;;;;;0.10;85.78;100302.56;10252932;28;20047;-71
2024/01/26 10:02:46;;;;;;;28.27;15.82;;;;;;;0.49;85.35;100324.34;10252046;28;20137;-71
2024/01/26 10:07:46;;;;;;;27.48;15.05;;;;;;;0.89;84.37;100318.03;10252314;28;20039;-72
2024/01/26 10:12:47;;;;;;;34.65;15.15;;;;;;;1.16;83.54;100330.13;10252493;28;20047;-72
2024/01/26 10:17:53;;;;;;;26.10;14.43;;;;;;;1.10;82.83;100317.47;10252373;28;20050;-72
2024/01/26 10:22:54;;;;;;;23.65;13.63;;;;;;;0.61;84.18;100310.44;10252226;28;20396;-72
2024/01/26 10:27:54;;;;;;;28.98;16.00;;;;;;;0.27;83.91;100304.03;10251624;28;20043;-72
2024/01/26 10:32:56;;;;;;;24.42;14.02;;;;;;;-0.33;84.10;100293.16;10251786;28;20039;-72
2024/01/26 10:37:58;;;;;;;26.50;14.60;;;;;;;-0.74;85.73;100296.66;10251260;28;20051;-72
2024/01/26 10:42:58;;;;;;;26.38;13.77;;;;;;;-0.78;85.73;100281.28;10251664;28;20496;-72
2024/01/26 10:48:00;;;;;;;22.90;13.05;;;;;;;-0.70;86.26;100298.13;10251802;28;20082;-72
2024/01/26 10:53:03;;;;;;;26.58;13.02;;;;;;;-0.63;85.87;100301.16;10254515;28;20452;-72
2024/01/26 10:58:05;;;;;;;24.80;13.20;;;;;;;-0.21;86.07;100303.72;10259105;28;20046;-72
2024/01/26 11:03:05;;;;;;;21.55;12.38;;;;;;;-0.12;84.97;100304.00;10258635;28;20317;-72
2024/01/26 11:08:20;;;;;;;26.27;13.38;;;;;;;0.10;83.91;100313.00;10259312;28;20043;-72
2024/01/26 11:13:23;;;;;;;27.80;13.85;;;;;;;0.17;84.27;100328.16;10258467;28;20090;-72
2024/01/26 11:18:25;;;;;;;23.27;13.90;;;;;;;-0.10;84.03;100291.66;10259298;28;20039;-73
2024/01/26 11:23:26;;;;;;;23.83;13.25;;;;;;;-0.29;84.85;100259.88;10258058;28;20133;-73
2024/01/26 11:28:29;;;;;;;28.05;14.77;;;;;;;-0.20;84.79;100326.31;10257792;28;20134;-73
2024/01/26 11:33:39;;;;;;;26.95;13.30;;;;;;;-0.50;84.45;100319.50;10258388;28;20127;-73
2024/01/26 11:38:40;;;;;;;27.77;13.85;;;;;;;-1.08;86.31;100344.81;10258304;28;20047;-73
2024/01/26 11:43:47;;;;;;;27.30;14.43;;;;;;;-1.24;86.38;100326.69;10258012;28;20071;-74
2024/01/26 11:48:50;;;;;;;31.00;14.30;;;;;;;-1.26;87.52;100335.53;10257989;28;20098;-73
2024/01/26 11:53:51;;;;;;;26.75;13.35;;;;;;;-1.14;86.91;100337.38;10256977;28;20220;-73
2024/01/26 11:58:51;;;;;;;27.20;15.05;;;;;;;-0.98;87.14;100337.31;10256718;28;20216;-74
2024/01/26 12:03:52;;;;;;;27.83;15.35;;;;;;;-0.84;86.94;100331.22;10256197;28;20043;-74
2024/01/26 12:08:55;;;;;;;29.02;14.82;;;;;;;-0.81;87.22;100326.63;10256253;28;20035;-75
2024/01/26 12:13:56;;;;;;;27.30;13.70;;;;;;;-0.70;86.41;100336.41;10256873;28;20047;-74
2024/01/26 12:18:56;;;;;;;21.80;11.93;;;;;;;-0.70;86.29;100333.81;10252418;28;20047;-74
2024/01/26 12:23:57;;;;;;;24.15;11.68;;;;;;;-0.75;86.52;100346.28;10255140;28;20567;-74
2024/01/26 12:28:58;;;;;;;21.38;12.20;;;;;;;-0.94;86.64;100320.53;10256258;28;20040;-74
2024/01/26 12:33:59;;;;;;;21.02;11.38;;;;;;;-1.01;86.37;100320.06;10255276;28;20047;-74
2024/01/26 12:39:00;;;;;;;22.33;11.95;;;;;;;-1.09;87.05;100316.25;10255777;28;20067;-75
2024/01/26 12:44:01;;;;;;;25.48;13.15;;;;;;;-1.39;87.22;100306.78;10254101;28;20556;-75
2024/01/26 12:49:02;;;;;;;27.90;12.90;;;;;;;-2.13;87.66;100258.19;10254980;28;20075;-75
2024/01/26 12:54:02;;;;;;;20.67;11.13;;;;;;;-1.93;88.55;100320.34;10254606;28;20396;-76
2024/01/26 12:59:03;;;;;;;24.75;11.43;;;;;;;-2.31;88.47;100310.38;10255553;28;20420;-75
2024/01/26 13:04:07;;;;;;;24.77;12.63;;;;;;;-2.22;89.59;100305.56;10254405;28;20130;-75
2024/01/26 13:09:08;;;;;;;19.55;10.23;;;;;;;-2.22;89.25;100314.22;10254140;28;20043;-75
2024/01/26 13:14:08;;;;;;;22.90;11.52;;;;;;;-2.38;89.87;100314.25;10254843;28;20054;-77
2024/01/26 13:19:09;;;;;;;35.83;12.60;;;;;;;-2.89;90.75;100263.38;10253424;28;20043;-75
2024/01/26 13:24:10;;;;;;;32.22;12.65;;;;;;;-2.77;91.46;100323.34;10254118;28;20047;-75
2024/01/26 13:29:11;;;;;;;24.20;11.60;;;;;;;-3.18;91.48;100285.75;10253154;28;20039;-74
2024/01/26 13:34:12;;;;;;;24.67;11.70;;;;;;;-3.30;92.13;100289.81;10252662;28;20047;-73
2024/01/26 13:39:13;;;;;;;26.85;13.63;;;;;;;-3.28;92.50;100329.56;10253188;28;20046;-73
2024/01/26 13:44:14;;;;;;;33.30;15.75;;;;;;;-3.59;93.29;100338.06;10253316;28;20059;-73
2024/01/26 13:49:15;;;;;;;33.97;16.92;;;;;;;-3.87;94.43;100330.84;10253283;28;20463;-73
2024/01/26 13:54:16;;;;;;;42.70;18.73;;;;;;;-4.13;95.50;100328.63;10252975;28;20078;-72
2024/01/26 13:59:17;;;;;;;49.50;18.98;;;;;;;-4.26;96.43;100343.09;10252930;28;20046;-73
2024/01/26 14:04:21;;;;;;;51.47;18.17;;;;;;;-4.30;97.63;100346.75;10252708;28;20094;-73
2024/01/26 14:09:22;;;;;;;43.78;18.75;;;;;;;-4.20;98.37;100352.34;10251969;28;20112;-73
2024/01/26 14:14:23;;;;;;;43.88;18.52;;;;;;;-4.37;98.44;100334.97;10251441;28;20639;-73
2024/01/26 14:19:23;;;;;;;52.10;18.90;;;;;;;-4.33;98.43;100375.44;10252623;28;20039;-73
2024/01/26 14:24:26;;;;;;;91.70;19.73;;;;;;;-4.40;97.92;100385.28;10251369;28;20110;-75
2024/01/26 14:29:27;;;;;;;55.83;17.30;;;;;;;-4.57;98.45;100376.59;10251782;28;20053;-73
2024/01/26 14:34:28;;;;;;;67.80;16.65;;;;;;;-4.80;98.70;100355.16;10250173;28;20472;-73
2024/01/26 14:39:29;;;;;;;42.90;17.27;;;;;;;-4.75;99.06;100392.06;10251703;28;20121;-75
2024/01/26 14:44:30;;;;;;;85.97;23.25;;;;;;;-4.62;99.27;100432.06;10251127;28;20150;-75
2024/01/26 14:49:30;;;;;;;58.47;20.33;;;;;;;-4.77;99.48;100414.63;10250051;28;20047;-75
2024/01/26 14:54:31;;;;;;;63.28;19.30;;;;;;;-4.81;99.45;100410.50;10250821;28;20047;-73
2024/01/26 14:59:32;;;;;;;69.45;18.50;;;;;;;-4.64;99.83;100441.66;10251844;28;20074;-74
2024/01/26 15:04:33;;;;;;;80.50;19.33;;;;;;;-4.80;100.00;100416.50;10250787;28;20129;-73
2024/01/26 15:09:33;;;;;;;57.75;16.80;;;;;;;-5.56;100.00;100308.47;10251193;28;20053;-73
2024/01/26 15:14:34;;;;;;;75.47;20.20;;;;;;;-4.80;100.00;100427.72;10251038;28;20559;-73
2024/01/26 15:19:35;;;;;;;55.53;17.38;;;;;;;-4.55;100.00;100443.00;10250589;28;20045;-74
2024/01/26 15:24:37;;;;;;;59.58;15.70;;;;;;;-4.56;100.00;100433.53;10250933;28;20051;-73
2024/01/26 15:29:38;;;;;;;56.38;15.43;;;;;;;-4.74;100.00;100385.13;10250321;28;20074;-73
2024/01/26 15:34:39;;;;;;;85.25;16.00;;;;;;;-4.46;100.00;100426.19;10251192;28;20043;-73
2024/01/26 15:39:39;;;;;;;66.35;17.30;;;;;;;-4.53;100.00;100396.28;10250432;28;20091;-74
2024/01/26 15:44:41;;;;;;;73.05;15.57;;;;;;;-4.38;100.00;100411.13;10244843;29;20110;-73
2024/01/26 15:49:42;;;;;;;57.28;12.30;;;;;;;-4.31;100.00;100427.22;10254186;28;20051;-73
2024/01/26 15:54:42;;;;;;;81.53;13.90;;;;;;;-4.73;100.00;100372.09;10253848;29;20054;-74
2024/01/26 15:59:43;;;;;;;78.20;16.88;;;;;;;-4.55;100.00;100426.59;10257335;28;20047;-73
2024/01/26 16:04:44;;;;;;;87.63;12.50;;;;;;;-4.70;100.00;100395.28;10253439;28;20047;-73
2024/01/26 16:09:45;;;;;;;61.85;12.90;;;;;;;-4.87;100.00;100393.47;10253016;28;20066;-73
2024/01/26 16:14:46;;;;;;;51.63;10.23;;;;;;;-4.89;100.00;100430.72;10254015;28;20404;-75
2024/01/26 16:19:46;;;;;;;47.95;11.13;;;;;;;-4.79;100.00;100447.53;10252122;28;20035;-74
2024/01/26 16:24:47;;;;;;;45.42;8.90;;;;;;;-4.80;100.00;100469.19;10241212;29;20468;-74
2024/01/26 16:29:48;;;;;;;36.35;8.95;;;;;;;-5.19;100.00;100428.53;10242743;28;20050;-74
2024/01/26 16:34:49;;;;;;;47.22;10.57;;;;;;;-5.46;100.00;100380.53;10244393;29;20051;-74
2024/01/26 16:39:49;;;;;;;62.78;11.43;;;;;;;-4.87;100.00;100471.19;10240232;29;20051;-75
2024/01/26 16:44:50;;;;;;;37.92;10.10;;;;;;;-5.31;100.00;100413.53;10248425;29;20055;-75
2024/01/26 16:49:55;;;;;;;34.97;8.65;;;;;;;-5.07;100.00;100479.81;10228691;28;20066;-74
2024/01/26 16:54:58;;;;;;;;;;;;;;;-5.01;100.00;100481.31;10253992;28;20035;-74
2024/01/26 16:59:58;;;;;;;16.97;7.73;;;;;;;-5.20;100.00;100476.09;10253530;28;19930;-73
2024/01/26 17:05:02;;;;;;;14.23;7.28;;;;;;;-5.26;100.00;100458.22;10253587;28;20043;-75
2024/01/26 17:10:03;;;;;;;16.15;6.90;;;;;;;-5.28;100.00;100450.50;10251664;28;20079;-75
2024/01/26 17:15:05;;;;;;;13.20;7.05;;;;;;;-5.15;100.00;100468.94;10252755;29;20059;-75
2024/01/26 17:20:06;;;;;;;16.38;7.45;;;;;;;-5.16;100.00;100469.00;10253681;29;20035;-75
2024/01/26 17:25:07;;;;;;;22.45;7.50;;;;;;;-5.09;100.00;100476.44;10251681;29;20054;-75
2024/01/26 17:30:09;;;;;;;15.48;7.05;;;;;;;-5.09;100.00;100468.66;10252819;28;20500;-75
2024/01/26 17:35:09;;;;;;;17.25;7.78;;;;;;;-4.98;100.00;100463.03;10253509;29;20035;-74
2024/01/26 17:40:11;;;;;;;16.55;7.40;;;;;;;-4.98;100.00;100457.03;10253100;28;20047;-75
2024/01/26 17:45:11;;;;;;;14.77;7.22;;;;;;;-4.93;100.00;100466.28;10253423;29;20077;-75
2024/01/26 17:50:13;;;;;;;13.40;6.70;;;;;;;-5.39;100.00;100389.72;10253078;29;20053;-75
2024/01/26 17:55:13;;;;;;;16.00;7.40;;;;;;;-4.79;100.00;100478.63;10252432;29;20139;-75
2024/01/26 18:00:15;;;;;;;25.67;9.18;;;;;;;-4.78;100.00;100474.31;10252529;28;20130;-75
2024/01/26 18:05:19;;;;;;;19.85;8.88;;;;;;;-4.96;100.00;100447.44;10232391;28;20043;-75
2024/01/26 18:10:20;;;;;;;19.35;9.98;;;;;;;-4.87;100.00;100476.38;10212881;29;20043;-76
2024/01/26 18:15:21;;;;;;;32.53;11.68;;;;;;;-5.29;100.00;100414.31;10240809;29;20044;-75
2024/01/26 18:20:22;;;;;;;42.40;11.75;;;;;;;-5.23;100.00;100445.13;10252746;28;20054;-76
2024/01/26 18:25:22;;;;;;;31.80;10.75;;;;;;;-5.41;100.00;100401.91;10251486;28;20043;-76
2024/01/26 18:30:23;;;;;;;21.50;9.35;;;;;;;-5.06;100.00;100446.97;10251813;28;20069;-76
2024/01/26 18:35:24;;;;;;;23.55;9.82;;;;;;;-5.16;100.00;100441.34;10251119;28;20051;-76
2024/01/26 18:40:25;;;;;;;32.42;10.77;;;;;;;-5.08;100.00;100472.97;10251505;29;20404;-76
2024/01/26 18:45:27;;;;;;;45.97;12.02;;;;;;;-5.15;100.00;100465.50;10251758;28;20066;-76
2024/01/26 18:50:31;;;;;;;44.85;15.18;;;;;;;-5.39;100.00;100419.03;10249036;28;20066;-75
2024/01/26 18:55:32;;;;;;;39.28;15.63;;;;;;;-5.47;100.00;100466.84;10242684;28;20047;-75
2024/01/26 19:00:33;;;;;;;30.92;13.38;;;;;;;-5.69;100.00;100474.66;10250858;28;20128;-75
2024/01/26 19:05:33;;;;;;;22.08;11.18;;;;;;;-5.87;100.00;100452.94;10250879;28;20050;-75
2024/01/26 19:10:34;;;;;;;40.85;11.30;;;;;;;-5.88;100.00;100474.56;10249816;28;20074;-75
2024/01/26 19:15:35;;;;;;;29.23;11.82;;;;;;;-5.93;100.00;100468.75;10256519;28;20109;-75
2024/01/26 19:20:36;;;;;;;35.83;15.73;;;;;;;-6.06;100.00;100458.03;10258593;28;20035;-74
2024/01/26 19:25:39;;;;;;;63.55;15.27;;;;;;;-6.15;100.00;100459.25;10258876;28;20067;-75
2024/01/26 19:30:39;;;;;;;45.35;13.10;;;;;;;-6.25;100.00;100466.50;10258459;28;20078;-75
2024/01/26 19:35:40;;;;;;;29.67;12.52;;;;;;;-6.29;100.00;100483.03;10258222;28;20139;-74
2024/01/26 19:40:42;;;;;;;22.73;11.07;;;;;;;-6.56;100.00;100461.63;10257314;28;20051;-74
2024/01/26 19:45:43;;;;;;;23.67;11.70;;;;;;;-6.54;100.00;100474.50;10258612;28;20059;-74
2024/01/26 19:50:44;;;;;;;25.15;10.35;;;;;;;-6.96;100.00;100434.69;10257684;28;20050;-75
2024/01/26 19:55:46;;;;;;;25.30;11.27;;;;;;;-7.07;100.00;100412.72;10257085;28;20039;-74
2024/01/26 20:00:48;;;;;;;28.85;12.93;;;;;;;-6.79;100.00;100479.72;10257249;28;20047;-74
2024/01/26 20:05:49;;;;;;;20.48;9.45;;;;;;;-6.83;100.00;100462.66;10257203;28;20054;-75
2024/01/26 20:10:49;;;;;;;21.92;9.93;;;;;;;-7.18;100.00;100436.31;10255750;29;20035;-74
2024/01/26 20:15:50;;;;;;;24.73;11.05;;;;;;;-7.08;100.00;100439.44;10256259;29;20043;-75
2024/01/26 20:20:51;;;;;;;18.38;9.32;;;;;;;-7.38;100.00;100419.78;10256041;28;20535;-75
2024/01/26 20:25:51;;;;;;;18.05;8.73;;;;;;;-7.38;100.00;100435.28;10255191;28;20051;-75
2024/01/26 20:30:52;;;;;;;22.63;10.93;;;;;;;-7.32;100.00;100433.41;10255761;28;20038;-75
2024/01/26 20:35:53;;;;;;;21.83;10.60;;;;;;;-7.31;100.00;100429.91;10255517;28;20062;-75
2024/01/26 20:40:54;;;;;;;25.10;10.30;;;;;;;-7.04;100.00;100447.00;10255264;28;20491;-75
2024/01/26 20:45:55;;;;;;;30.52;12.05;;;;;;;-7.14;100.00;100396.59;10256103;28;20071;-75
2024/01/26 20:50:56;;;;;;;28.33;10.88;;;;;;;-6.95;100.00;100433.78;10255786;28;20129;-74
2024/01/26 20:55:57;;;;;;;36.95;14.00;;;;;;;-7.17;100.00;100389.81;10255389;28;20046;-74
2024/01/26 21:00:58;;;;;;;48.88;13.55;;;;;;;-7.02;100.00;100406.50;10254970;28;20484;-75
2024/01/26 21:05:59;;;;;;;23.80;11.48;;;;;;;-6.88;100.00;100429.22;10254940;28;20484;-74
2024/01/26 21:10:59;;;;;;;45.42;11.85;;;;;;;-6.60;100.00;100451.47;10254934;28;20050;-75
2024/01/26 21:16:00;;;;;;;56.78;13.95;;;;;;;-6.57;100.00;100434.13;10254972;28;20042;-75
2024/01/26 21:21:01;;;;;;;34.80;14.10;;;;;;;-6.24;100.00;100472.53;10253794;28;20058;-75
2024/01/26 21:26:03;;;;;;;34.85;13.23;;;;;;;-6.22;100.00;100450.03;10253633;28;20043;-74
2024/01/26 21:31:05;;;;;;;32.50;13.77;;;;;;;-6.16;100.00;100457.56;10254739;28;20400;-75
2024/01/26 21:36:07;;;;;;;38.30;15.02;;;;;;;-6.43;100.00;100411.19;10252465;28;20035;-75
2024/01/26 21:41:07;;;;;;;31.55;14.95;;;;;;;-6.08;100.00;100458.09;10252587;28;20043;-75
2024/01/26 21:46:08;;;;;;;36.47;14.25;;;;;;;-6.00;100.00;100453.47;10252713;28;20130;-75
2024/01/26 21:51:09;;;;;;;32.50;14.27;;;;;;;-6.11;100.00;100421.16;10253414;28;20043;-75
2024/01/26 21:56:09;;;;;;;32.03;13.55;;;;;;;-6.09;100.00;100434.88;10252686;28;20078;-75
2024/01/26 22:01:15;;;;;;;26.52;11.82;;;;;;;-6.00;100.00;100450.88;10252821;28;20042;-74
2024/01/26 22:06:16;;;;;;;33.53;13.10;;;;;;;-5.88;100.00;100446.09;10252818;28;20043;-75
2024/01/26 22:11:17;;;;;;;47.92;12.18;;;;;;;-5.93;100.00;100440.28;10252126;28;20046;-75
2024/01/26 22:16:18;;;;;;;35.20;13.20;;;;;;;-6.37;100.00;100361.00;10251973;28;20050;-75
2024/01/26 22:21:19;;;;;;;55.28;13.70;;;;;;;-5.87;100.00;100424.50;10252310;28;20039;-75
2024/01/26 22:26:23;;;;;;;39.63;14.93;;;;;;;-5.87;100.00;100414.97;10252149;28;20049;-75
2024/01/26 22:31:24;;;;;;;38.75;13.65;;;;;;;-5.79;100.00;100418.09;10252157;28;20043;-74